Time;durP1;ratioP1;P1;durP2;ratioP2;P2;SDS_P1;SDS_P2;PMS_P1;PMS_P2;Temp;Humidity;BMP_temperature;BMP_pressure;BME280_temperature;BME280_humidity;BME280_pressure;Samples;Min_cycle;Max_cycle;Signal;HPM_P1;HPM_P2
2021/10/05 00:00:10;;;;;;;1999.90;999.90;;;;;;;11.17;52.29;101196.59;5018449;27;100321;-73
2021/10/05 00:02:38;;;;;;;1999.90;999.90;;;;;;;11.17;52.84;101193.94;5020967;28;97476;-74
2021/10/05 00:05:09;;;;;;;1999.90;999.90;;;;;;;11.18;52.37;101187.72;5017994;27;97398;-74
2021/10/05 00:07:37;;;;;;;1999.90;999.90;;;;;;;11.16;52.29;101185.03;5021276;27;97185;-73
2021/10/05 00:10:06;;;;;;;1999.90;999.90;;;;;;;11.16;52.35;101184.13;5006015;28;100814;-73
2021/10/05 00:12:34;;;;;;;1999.90;999.90;;;;;;;11.16;52.37;101185.03;5022267;27;98460;-73
2021/10/05 00:15:05;;;;;;;1999.90;999.90;;;;;;;11.14;52.34;101191.19;5004055;28;98992;-73
2021/10/05 00:17:33;;;;;;;1999.90;999.90;;;;;;;11.14;52.47;101188.53;5020447;27;97038;-74
2021/10/05 00:20:01;;;;;;;1999.90;999.90;;;;;;;11.14;52.35;101185.88;5022740;27;99291;-73
2021/10/05 00:22:30;;;;;;;1999.90;999.90;;;;;;;11.13;52.49;101189.38;5037745;27;97701;-74
2021/10/05 00:24:58;;;;;;;1999.90;999.90;;;;;;;11.15;52.53;101185.00;5024298;27;97287;-74
2021/10/05 00:27:26;;;;;;;1999.90;999.90;;;;;;;11.18;52.45;101170.00;5022580;27;97316;-74
2021/10/05 00:29:53;;;;;;;1999.90;999.90;;;;;;;11.16;52.54;101168.13;5025853;27;99165;-73
2021/10/05 00:32:21;;;;;;;1999.90;999.90;;;;;;;11.14;52.49;101172.56;5005944;27;99527;-74
2021/10/05 00:34:50;;;;;;;1999.90;999.90;;;;;;;11.15;52.53;101172.59;5023460;28;97251;-74
2021/10/05 00:37:17;;;;;;;1999.90;999.90;;;;;;;11.18;52.61;101175.31;5024638;27;98184;-73
2021/10/05 00:39:46;;;;;;;1999.90;999.90;;;;;;;11.21;52.48;101171.84;5004536;28;99989;-73
2021/10/05 00:42:14;;;;;;;1999.90;999.90;;;;;;;11.15;52.69;101166.34;5021562;27;98978;-73
2021/10/05 00:44:42;;;;;;;1999.90;999.90;;;;;;;11.13;52.60;101161.00;5024187;27;96764;-73
2021/10/05 00:47:11;;;;;;;1999.90;999.90;;;;;;;11.14;52.57;101162.78;5020942;27;98196;-73
2021/10/05 00:49:41;;;;;;;1999.90;999.90;;;;;;;11.14;52.68;101159.22;5020269;27;99274;-74
2021/10/05 00:52:11;;;;;;;1999.90;999.90;;;;;;;11.14;52.59;101152.13;5020709;27;100619;-74
2021/10/05 00:54:40;;;;;;;1999.90;999.90;;;;;;;11.13;52.79;101155.66;5022256;27;97180;-73
2021/10/05 00:57:10;;;;;;;1999.90;999.90;;;;;;;11.14;52.72;101157.44;5020033;27;97212;-73
2021/10/05 00:59:38;;;;;;;1999.90;999.90;;;;;;;11.16;52.62;101162.81;4997121;28;102175;-73
2021/10/05 01:02:07;;;;;;;1999.90;999.90;;;;;;;11.15;52.53;101158.34;5022417;27;100537;-74
2021/10/05 01:04:35;;;;;;;1999.90;999.90;;;;;;;11.15;52.67;101153.03;5021655;27;97742;-74
2021/10/05 01:07:05;;;;;;;1999.90;999.90;;;;;;;11.14;52.63;101144.13;5031949;27;97790;-74
2021/10/05 01:09:33;;;;;;;1999.90;999.90;;;;;;;11.14;52.73;101143.25;5013304;27;99340;-74
2021/10/05 01:12:01;;;;;;;1999.90;999.90;;;;;;;11.14;52.63;101152.13;5005187;27;100800;-73
2021/10/05 01:14:30;;;;;;;1999.90;999.90;;;;;;;11.13;52.78;101131.69;5020684;28;97628;-73
2021/10/05 01:16:59;;;;;;;1999.90;999.90;;;;;;;11.12;52.79;101124.53;5020737;27;97018;-73
2021/10/05 01:19:27;;;;;;;1999.90;999.90;;;;;;;11.12;52.80;101118.34;5020929;27;98487;-73
2021/10/05 01:21:56;;;;;;;1999.90;999.90;;;;;;;11.12;52.87;101113.00;5021047;27;100566;-73
2021/10/05 01:24:25;;;;;;;1999.90;999.90;;;;;;;11.10;52.89;101096.97;5020553;27;98075;-74
2021/10/05 01:26:54;;;;;;;1999.90;999.90;;;;;;;11.10;52.66;101099.63;5003506;27;97086;-74
2021/10/05 01:29:25;;;;;;;1999.90;999.90;;;;;;;11.10;52.58;101096.97;5021673;27;96905;-74
2021/10/05 01:31:55;;;;;;;1999.90;999.90;;;;;;;11.09;52.74;101087.19;5019996;27;97988;-73
2021/10/05 01:34:23;;;;;;;1999.90;999.90;;;;;;;11.08;52.82;101087.16;5020550;27;97618;-73
2021/10/05 01:36:52;;;;;;;1999.90;999.90;;;;;;;11.05;52.83;101092.41;5022172;27;96938;-74
2021/10/05 01:39:24;;;;;;;1999.90;999.90;;;;;;;11.05;53.08;101090.63;5020563;27;97670;-74
2021/10/05 01:41:52;;;;;;;1999.90;999.90;;;;;;;11.08;52.71;101095.16;5020743;27;99808;-74
2021/10/05 01:44:20;;;;;;;1999.90;999.90;;;;;;;11.05;52.94;101080.00;5022618;28;97260;-73
2021/10/05 01:46:50;;;;;;;1999.90;999.90;;;;;;;11.05;52.79;101074.66;5016992;27;97159;-73
2021/10/05 01:49:19;;;;;;;1999.90;999.90;;;;;;;11.06;52.79;101080.91;5015462;27;99277;-74
2021/10/05 01:51:47;;;;;;;1999.90;999.90;;;;;;;11.07;52.69;101072.03;5018714;27;100519;-75
2021/10/05 01:54:15;;;;;;;1999.90;999.90;;;;;;;11.06;52.81;101070.25;5019173;27;97345;-73
2021/10/05 01:56:44;;;;;;;1999.90;999.90;;;;;;;11.05;52.78;101073.75;5019975;27;97415;-73
2021/10/05 01:59:12;;;;;;;1999.90;999.90;;;;;;;11.04;52.66;101063.97;5021158;27;98098;-73
2021/10/05 02:01:40;;;;;;;1999.90;999.90;;;;;;;11.09;52.76;101057.00;5015088;27;98210;-73
2021/10/05 02:04:08;;;;;;;1999.90;999.90;;;;;;;11.07;52.68;101056.06;5001712;28;97859;-74
2021/10/05 02:06:36;;;;;;;1999.90;999.90;;;;;;;11.07;52.64;101056.06;5011510;27;96871;-74
2021/10/05 02:09:05;;;;;;;1999.90;999.90;;;;;;;11.08;52.72;101053.44;5019921;28;98014;-74
2021/10/05 02:11:32;;;;;;;1999.90;999.90;;;;;;;11.07;52.90;101059.63;5021326;28;97772;-73
2021/10/05 02:14:02;;;;;;;1999.90;999.90;;;;;;;11.07;52.70;101040.97;5019564;28;97167;-73
2021/10/05 02:16:31;;;;;;;1999.90;999.90;;;;;;;11.07;52.78;101050.72;5019597;27;97447;-73
2021/10/05 02:18:59;;;;;;;1999.90;999.90;;;;;;;11.05;52.83;101037.38;5021544;28;99270;-74
2021/10/05 02:21:26;;;;;;;1999.90;999.90;;;;;;;11.05;52.82;101047.13;5019220;27;99218;-73
2021/10/05 02:26:40;;;;;;;1999.90;999.90;;;;;;;11.03;53.06;101043.56;5028901;27;97126;-73
2021/10/05 02:29:09;;;;;;;1999.90;999.90;;;;;;;11.03;53.06;101035.56;5018277;27;99382;-74
2021/10/05 02:31:37;;;;;;;1999.90;999.90;;;;;;;11.02;52.97;101034.66;5019572;28;99224;-74
2021/10/05 02:34:05;;;;;;;1999.90;999.90;;;;;;;11.01;53.00;101029.31;5022046;27;97659;-74
2021/10/05 02:36:33;;;;;;;1999.90;999.90;;;;;;;11.00;53.14;101020.41;5021594;27;96873;-73
2021/10/05 02:39:00;;;;;;;1999.90;999.90;;;;;;;11.00;53.13;101023.06;5009553;28;98824;-74
2021/10/05 02:41:28;;;;;;;1999.90;999.90;;;;;;;10.99;53.16;101025.69;5018572;28;97986;-73
2021/10/05 02:43:56;;;;;;;1999.90;999.90;;;;;;;10.98;53.13;101019.47;5020826;27;96913;-74
2021/10/05 02:46:25;;;;;;;1999.90;999.90;;;;;;;10.99;53.08;101025.69;5002740;28;96940;-73
2021/10/05 02:48:53;;;;;;;1999.90;999.90;;;;;;;11.00;53.22;101025.72;5001066;28;99215;-73
2021/10/05 02:51:21;;;;;;;1999.90;999.90;;;;;;;11.02;53.24;101023.09;5003365;28;101523;-74
2021/10/05 02:53:49;;;;;;;1999.90;999.90;;;;;;;10.99;53.25;101023.03;5002394;28;97729;-74
2021/10/05 02:56:17;;;;;;;1999.90;999.90;;;;;;;10.98;53.15;101007.91;5017774;27;96960;-74
2021/10/05 02:58:45;;;;;;;1999.90;999.90;;;;;;;10.97;53.32;101000.78;5018153;27;99573;-72
2021/10/05 03:01:12;;;;;;;1999.90;999.90;;;;;;;10.97;53.35;100998.13;5019890;27;100724;-73
2021/10/05 03:03:42;;;;;;;1999.90;999.90;;;;;;;10.98;53.43;100997.25;5019898;27;97980;-72
2021/10/05 03:06:10;;;;;;;1999.90;999.90;;;;;;;10.96;53.59;100996.31;5019530;27;97933;-73
2021/10/05 03:08:40;;;;;;;1999.90;999.90;;;;;;;10.96;53.57;100991.91;5021094;28;97834;-73
2021/10/05 03:11:09;;;;;;;1999.90;999.90;;;;;;;10.96;53.68;100985.66;5022006;27;97543;-73
2021/10/05 03:13:36;;;;;;;1999.90;999.90;;;;;;;10.95;53.79;100976.81;5020014;28;99220;-73
2021/10/05 03:16:06;;;;;;;1999.90;999.90;;;;;;;10.96;53.85;100980.34;5019122;28;97455;-73
2021/10/05 03:18:35;;;;;;;1999.90;999.90;;;;;;;10.96;53.93;100983.00;5018697;27;99265;-73
2021/10/05 03:21:04;;;;;;;1999.90;999.90;;;;;;;10.95;53.96;100970.56;5004009;28;99294;-73
2021/10/05 03:23:32;;;;;;;1999.90;999.90;;;;;;;10.95;53.92;100978.56;5018935;27;97007;-73
2021/10/05 03:25:59;;;;;;;1999.90;999.90;;;;;;;10.94;53.97;100969.66;5020264;27;96822;-73
2021/10/05 03:28:27;;;;;;;1999.90;999.90;;;;;;;10.94;53.91;100968.78;5019455;27;99828;-73
2021/10/05 03:30:55;;;;;;;1999.90;999.90;;;;;;;10.97;54.06;100960.84;5018999;27;97661;-73
2021/10/05 03:33:26;;;;;;;1999.90;999.90;;;;;;;10.97;53.86;100955.53;5019509;28;98191;-73
2021/10/05 03:35:54;;;;;;;1999.90;999.90;;;;;;;10.98;53.64;100949.31;5020970;28;97985;-73
2021/10/05 03:38:23;;;;;;;1999.90;999.90;;;;;;;10.97;53.71;100945.78;5020709;27;97356;-73
2021/10/05 03:40:51;;;;;;;1999.90;999.90;;;;;;;10.98;53.89;100946.66;5001561;28;99260;-73
2021/10/05 03:43:18;;;;;;;1999.90;999.90;;;;;;;10.96;53.91;100937.75;5022574;27;97299;-72
2021/10/05 03:45:46;;;;;;;1999.90;999.90;;;;;;;10.95;54.01;100930.63;5019923;27;97491;-73
2021/10/05 03:48:14;;;;;;;1999.90;999.90;;;;;;;10.94;54.01;100919.06;5022499;27;99375;-73
2021/10/05 03:50:42;;;;;;;1999.90;999.90;;;;;;;10.94;54.14;100908.41;5024184;27;97092;-72
2021/10/05 03:53:11;;;;;;;1999.90;999.90;;;;;;;10.98;53.98;100914.72;5023121;27;96809;-73
2021/10/05 03:55:40;;;;;;;1999.90;999.90;;;;;;;10.96;54.08;100909.34;5021195;27;97823;-72
2021/10/05 03:58:07;;;;;;;1999.90;999.90;;;;;;;10.97;54.23;100916.50;5004797;27;99387;-72
2021/10/05 04:00:35;;;;;;;1999.90;999.90;;;;;;;10.97;54.10;100911.19;5025307;27;100768;-72
2021/10/05 04:03:03;;;;;;;1999.90;999.90;;;;;;;11.00;54.03;100913.88;5011793;28;98042;-70
2021/10/05 04:05:34;;;;;;;1999.90;999.90;;;;;;;11.00;54.07;100905.00;5020327;27;97106;-71
2021/10/05 04:08:02;;;;;;;1999.90;999.90;;;;;;;11.01;53.95;100904.16;5021721;27;97860;-72
2021/10/05 04:10:30;;;;;;;1999.90;999.90;;;;;;;11.01;54.14;100901.47;5022843;27;97241;-71
2021/10/05 04:12:59;;;;;;;1999.90;999.90;;;;;;;11.00;54.11;100897.91;5021465;27;97181;-71
2021/10/05 04:15:27;;;;;;;1999.90;999.90;;;;;;;11.01;54.14;100896.16;5022346;27;97677;-72
2021/10/05 04:17:55;;;;;;;1999.90;999.90;;;;;;;10.98;54.32;100890.75;5021306;27;99680;-71
2021/10/05 04:20:27;;;;;;;1999.90;999.90;;;;;;;10.97;54.24;100888.97;5022109;27;97738;-73
2021/10/05 04:22:55;;;;;;;1999.90;999.90;;;;;;;10.99;54.34;100876.59;5020243;27;96706;-72
2021/10/05 04:25:24;;;;;;;1999.90;999.90;;;;;;;11.00;54.20;100876.59;5021935;27;99577;-72
2021/10/05 04:27:52;;;;;;;1999.90;999.90;;;;;;;10.99;54.25;100872.16;5023176;27;97590;-71
2021/10/05 04:30:21;;;;;;;1999.90;999.90;;;;;;;10.99;54.08;100876.59;5020769;27;99646;-72
2021/10/05 04:32:49;;;;;;;1999.90;999.90;;;;;;;11.00;54.08;100873.03;5023062;28;96885;-72
2021/10/05 04:35:17;;;;;;;1999.90;999.90;;;;;;;10.99;54.30;100871.25;5020053;27;97233;-71
2021/10/05 04:37:45;;;;;;;1999.90;999.90;;;;;;;10.59;55.09;100868.59;5020755;27;98256;-71
2021/10/05 04:40:13;;;;;;;1999.90;999.90;;;;;;;10.81;54.42;100869.09;5021351;27;97685;-71
2021/10/05 04:42:41;;;;;;;1999.90;999.90;;;;;;;10.88;54.52;100865.72;5022751;27;97248;-72
2021/10/05 04:45:10;;;;;;;1999.90;999.90;;;;;;;10.89;54.41;100863.94;5020238;27;97847;-72
2021/10/05 04:47:39;;;;;;;1999.90;999.90;;;;;;;10.91;54.37;100852.47;4999897;28;98097;-71
2021/10/05 04:50:09;;;;;;;1999.90;999.90;;;;;;;10.94;54.59;100854.31;5014028;27;98493;-71
2021/10/05 04:52:37;;;;;;;1999.90;999.90;;;;;;;10.93;54.64;100849.81;5016752;27;97498;-71
2021/10/05 04:55:06;;;;;;;1999.90;999.90;;;;;;;10.93;54.61;100845.41;5019669;27;97433;-71
2021/10/05 04:57:34;;;;;;;1999.90;999.90;;;;;;;10.92;54.70;100846.25;5016723;27;97823;-72
2021/10/05 05:00:02;;;;;;;1999.90;999.90;;;;;;;10.93;54.82;100833.84;5001542;27;98785;-69
2021/10/05 05:02:30;;;;;;;1999.90;999.90;;;;;;;10.92;54.83;100832.94;5022061;27;97480;-72
2021/10/05 05:04:59;;;;;;;1999.90;999.90;;;;;;;10.92;54.75;100832.94;5004298;27;98391;-70
2021/10/05 05:07:27;;;;;;;1999.90;999.90;;;;;;;10.89;54.82;100811.59;5017036;27;99949;-71
2021/10/05 05:09:55;;;;;;;1999.90;999.90;;;;;;;10.90;54.69;100815.16;5016228;27;98676;-70
2021/10/05 05:12:22;;;;;;;1999.90;999.90;;;;;;;10.87;54.73;100813.31;5016740;27;97214;-72
2021/10/05 05:14:50;;;;;;;1999.90;999.90;;;;;;;10.86;54.64;100822.19;5019234;27;97555;-71
2021/10/05 05:17:18;;;;;;;1999.90;999.90;;;;;;;10.85;54.70;100803.53;5015996;28;98631;-72
2021/10/05 05:19:46;;;;;;;1999.90;999.90;;;;;;;10.86;54.43;100815.97;5017545;27;100177;-70
2021/10/05 05:22:15;;;;;;;1999.90;999.90;;;;;;;10.85;54.45;100807.06;5017241;27;97174;-71
2021/10/05 05:24:43;;;;;;;1999.90;999.90;;;;;;;10.82;54.32;100808.78;5017106;27;97022;-71
2021/10/05 05:27:11;;;;;;;1999.90;999.90;;;;;;;10.81;54.10;100802.53;5019675;27;100948;-72
2021/10/05 05:29:39;;;;;;;1999.90;999.90;;;;;;;10.81;54.04;100799.00;5019012;27;98938;-70
2021/10/05 05:32:08;;;;;;;1999.90;999.90;;;;;;;10.77;53.94;100795.38;5001037;28;97165;-71
2021/10/05 05:34:36;;;;;;;1999.90;999.90;;;;;;;10.75;54.12;100797.13;5016232;27;97916;-73
2021/10/05 05:37:06;;;;;;;1999.90;999.90;;;;;;;10.76;54.24;100795.31;5010068;27;98787;-69
2021/10/05 05:39:39;;;;;;;1999.90;999.90;;;;;;;10.75;54.44;100796.22;5014303;27;98088;-73
2021/10/05 05:42:07;;;;;;;1999.90;999.90;;;;;;;10.73;54.38;100787.28;5008514;27;97345;-70
2021/10/05 05:44:36;;;;;;;1999.90;999.90;;;;;;;10.73;54.65;100785.53;5008936;27;97779;-71
2021/10/05 05:47:04;;;;;;;1999.90;999.90;;;;;;;10.71;54.23;100783.69;5008391;27;100646;-73
2021/10/05 05:49:32;;;;;;;1999.90;999.90;;;;;;;10.69;54.31;100785.41;5014757;27;97897;-71
2021/10/05 05:52:00;;;;;;;1999.90;999.90;;;;;;;10.67;54.32;100787.16;5016084;27;97219;-69
2021/10/05 05:54:28;;;;;;;1999.90;999.90;;;;;;;10.64;54.39;100779.13;4999067;28;97203;-69
2021/10/05 05:56:58;;;;;;;1999.90;999.90;;;;;;;10.63;54.33;100774.69;5016925;27;98510;-70
2021/10/05 05:59:25;;;;;;;1999.90;999.90;;;;;;;10.64;54.43;100768.47;5017597;27;97769;-71
2021/10/05 06:01:53;;;;;;;1999.90;999.90;;;;;;;10.65;54.51;100765.84;5019133;27;97178;-71
2021/10/05 06:04:22;;;;;;;1999.90;999.90;;;;;;;10.64;54.46;100761.41;4998150;28;97282;-70
2021/10/05 06:06:50;;;;;;;1999.90;999.90;;;;;;;10.65;54.36;100759.63;5011835;27;98138;-72
2021/10/05 06:09:18;;;;;;;1999.90;999.90;;;;;;;10.65;54.44;100752.53;5014956;27;101690;-72
2021/10/05 06:11:48;;;;;;;1999.90;999.90;;;;;;;10.65;54.42;100752.53;5017847;27;97211;-70
2021/10/05 06:14:17;;;;;;;1999.90;999.90;;;;;;;10.66;54.25;100750.78;5015899;27;97938;-73
2021/10/05 06:16:45;;;;;;;1999.90;999.90;;;;;;;10.64;54.39;100756.06;4997498;28;98883;-72
2021/10/05 06:19:13;;;;;;;1999.90;999.90;;;;;;;10.65;53.96;100751.66;4999444;28;99614;-70
2021/10/05 06:21:41;;;;;;;1999.90;999.90;;;;;;;10.63;54.27;100746.28;5013158;27;98850;-70
2021/10/05 06:24:09;;;;;;;1999.90;999.90;;;;;;;10.61;54.22;100740.03;4998036;28;98049;-71
2021/10/05 06:26:37;;;;;;;1999.90;999.90;;;;;;;10.62;54.41;100743.59;4998033;27;99430;-74
2021/10/05 06:29:05;;;;;;;1999.90;999.90;;;;;;;10.63;54.06;100740.09;4997318;28;98786;-68
2021/10/05 06:31:35;;;;;;;1999.90;999.90;;;;;;;10.64;54.28;100739.19;4986209;27;97158;-70
2021/10/05 06:34:02;;;;;;;1999.90;999.90;;;;;;;10.65;54.46;100735.69;5014315;27;97782;-72
2021/10/05 06:36:30;;;;;;;1999.90;999.90;;;;;;;10.67;54.49;100728.59;5014190;27;97746;-70
2021/10/05 06:38:59;;;;;;;1999.90;999.90;;;;;;;10.69;54.59;100722.47;5011623;27;96871;-72
2021/10/05 06:41:27;;;;;;;1999.90;999.90;;;;;;;10.69;54.45;100732.19;4992048;28;97439;-71
2021/10/05 06:43:55;;;;;;;1999.90;999.90;;;;;;;10.69;54.57;100741.09;5014437;27;97501;-71
2021/10/05 06:46:23;;;;;;;1999.90;999.90;;;;;;;10.69;54.48;100740.19;5011354;27;99602;-73
2021/10/05 06:48:52;;;;;;;1999.90;999.90;;;;;;;10.67;54.30;100734.84;5012956;27;100399;-71
2021/10/05 06:51:20;;;;;;;1999.90;999.90;;;;;;;10.66;54.09;100726.81;5015225;27;97950;-71
2021/10/05 06:53:48;;;;;;;1999.90;999.90;;;;;;;10.64;54.15;100725.91;5013533;28;97294;-71
2021/10/05 06:56:16;;;;;;;1999.90;999.90;;;;;;;10.61;54.50;100718.72;4999265;28;96948;-71
2021/10/05 06:58:44;;;;;;;1999.90;999.90;;;;;;;10.63;54.57;100721.47;5015692;27;99100;-70
2021/10/05 07:01:12;;;;;;;1999.90;999.90;;;;;;;10.61;54.42;100717.88;5016430;27;97275;-70
2021/10/05 07:03:40;;;;;;;1999.90;999.90;;;;;;;10.60;54.50;100716.97;5000917;27;97832;-71
2021/10/05 07:06:10;;;;;;;1999.90;999.90;;;;;;;10.61;54.38;100724.06;4999891;28;100244;-70
2021/10/05 07:08:39;;;;;;;1999.90;999.90;;;;;;;10.59;54.34;100722.25;4997766;28;98115;-71
2021/10/05 07:11:07;;;;;;;1999.90;999.90;;;;;;;10.55;54.44;100720.38;4997224;28;97820;-70
2021/10/05 07:13:35;;;;;;;1999.90;999.90;;;;;;;10.53;54.26;100717.72;5017557;27;97721;-71
2021/10/05 07:16:07;;;;;;;1999.90;999.90;;;;;;;10.55;54.50;100715.06;5019192;27;98181;-72
2021/10/05 07:18:35;;;;;;;1999.90;999.90;;;;;;;10.54;54.52;100713.28;5018215;27;99086;-69
2021/10/05 07:21:04;;;;;;;1999.90;999.90;;;;;;;10.52;54.56;100723.88;5019566;27;96766;-71
2021/10/05 07:23:33;;;;;;;1999.90;999.90;;;;;;;10.52;54.62;100712.34;5002764;27;96802;-70
2021/10/05 07:26:14;;;;;;;1999.90;999.90;;;;;;;10.52;54.54;100713.22;5019372;27;98314;-73
2021/10/05 07:28:42;;;;;;;1999.90;999.90;;;;;;;10.51;54.67;100710.53;5017754;27;98966;-71
2021/10/05 07:31:09;;;;;;;1999.90;999.90;;;;;;;10.49;54.71;100696.31;5020014;27;98131;-71
2021/10/05 07:33:42;;;;;;;1999.90;999.90;;;;;;;10.48;54.73;100686.56;5024953;27;97380;-70
2021/10/05 07:36:11;;;;;;;1999.90;999.90;;;;;;;10.47;54.86;100690.06;5022742;27;97647;-72
2021/10/05 07:38:40;;;;;;;1999.90;999.90;;;;;;;10.45;54.84;100683.84;5007018;28;99675;-71
2021/10/05 07:41:08;;;;;;;1999.90;999.90;;;;;;;10.44;55.10;100682.94;5022196;27;97400;-71
2021/10/05 07:43:36;;;;;;;1999.90;999.90;;;;;;;10.43;54.92;100677.59;5025347;27;97754;-70
2021/10/05 07:46:04;;;;;;;1999.90;999.90;;;;;;;10.40;55.04;100670.41;5021868;27;97841;-70
2021/10/05 07:48:33;;;;;;;1999.90;999.90;;;;;;;10.41;54.88;100666.00;5006089;28;99270;-72
2021/10/05 07:51:00;;;;;;;1999.90;999.90;;;;;;;10.40;55.01;100659.75;5023967;28;97573;-73
2021/10/05 07:53:28;;;;;;;1999.90;999.90;;;;;;;10.40;55.05;100657.09;5021802;27;97080;-72
2021/10/05 07:55:57;;;;;;;1999.90;999.90;;;;;;;10.39;55.05;100647.34;5004960;27;97643;-73
2021/10/05 07:58:25;;;;;;;1999.90;999.90;;;;;;;10.39;55.04;100647.34;5022922;27;98952;-72
2021/10/05 08:00:53;;;;;;;1999.90;999.90;;;;;;;10.38;55.14;100641.97;5021811;27;97288;-71
2021/10/05 08:03:21;;;;;;;1999.90;999.90;;;;;;;10.37;55.27;100634.88;5005786;28;97692;-73
2021/10/05 08:05:49;;;;;;;1999.90;999.90;;;;;;;10.38;55.03;100626.00;5021186;27;100707;-72
2021/10/05 08:08:17;;;;;;;1999.90;999.90;;;;;;;10.38;55.09;100620.69;5020684;27;99097;-72
2021/10/05 08:10:45;;;;;;;1999.90;999.90;;;;;;;10.33;55.12;100617.03;5018606;27;97345;-70
2021/10/05 08:13:14;;;;;;;1999.90;999.90;;;;;;;10.31;55.08;100608.13;5018801;27;98133;-69
2021/10/05 08:15:42;;;;;;;1999.90;999.90;;;;;;;10.31;55.13;100589.53;5019578;27;97887;-71
2021/10/05 08:18:10;;;;;;;1999.90;999.90;;;;;;;10.30;55.13;100588.66;5001256;27;99236;-73
2021/10/05 08:20:38;;;;;;;1999.90;999.90;;;;;;;10.31;55.04;100584.19;5019930;27;97838;-71
2021/10/05 08:23:06;;;;;;;1999.90;999.90;;;;;;;10.29;55.03;100578.84;5020031;27;97448;-71
2021/10/05 08:25:34;;;;;;;1999.90;999.90;;;;;;;10.29;55.31;100575.28;5019517;27;97091;-72
2021/10/05 08:28:02;;;;;;;1999.90;999.90;;;;;;;10.29;55.43;100578.84;5027899;27;98911;-72
2021/10/05 08:30:32;;;;;;;1999.90;999.90;;;;;;;10.30;55.21;100579.75;5019668;27;97249;-72
2021/10/05 08:33:00;;;;;;;1999.90;999.90;;;;;;;10.29;55.17;100576.19;5000718;28;97313;-70
2021/10/05 08:35:28;;;;;;;1999.90;999.90;;;;;;;10.30;55.12;100574.44;5019463;27;97895;-70
2021/10/05 08:37:57;;;;;;;1999.90;999.90;;;;;;;10.29;55.34;100564.66;4999755;27;99916;-70
2021/10/05 08:40:26;;;;;;;1999.90;999.90;;;;;;;10.25;55.16;100565.50;5016145;27;97007;-70
2021/10/05 08:42:54;;;;;;;1999.90;999.90;;;;;;;10.23;55.06;100561.03;5009594;28;96849;-69
2021/10/05 08:45:23;;;;;;;1999.90;999.90;;;;;;;10.26;55.02;100564.63;5017098;27;100570;-69
2021/10/05 08:47:52;;;;;;;1999.90;999.90;;;;;;;10.27;55.05;100555.75;5000242;28;98875;-71
2021/10/05 08:50:21;;;;;;;1999.90;999.90;;;;;;;10.28;55.20;100552.25;5019769;27;97441;-71
2021/10/05 08:52:49;;;;;;;1999.90;999.90;;;;;;;10.26;54.99;100548.66;5020379;27;97925;-71
2021/10/05 08:55:17;;;;;;;1999.90;999.90;;;;;;;10.25;54.84;100537.13;5016506;27;99388;-70
2021/10/05 08:57:47;;;;;;;1999.90;999.90;;;;;;;10.23;54.78;100534.44;5016490;27;99685;-71
2021/10/05 09:00:15;;;;;;;1999.90;999.90;;;;;;;10.21;54.72;100529.94;5017494;27;97295;-70
2021/10/05 09:02:50;;;;;;;1999.90;999.90;;;;;;;10.20;54.62;100522.84;5016320;27;97750;-69
2021/10/05 09:05:26;;;;;;;1999.90;999.90;;;;;;;10.20;54.47;100517.53;5028383;27;97874;-68
2021/10/05 09:07:56;;;;;;;1999.90;999.90;;;;;;;10.19;54.40;100521.06;5018922;27;97329;-69
2021/10/05 09:10:27;;;;;;;1999.90;999.90;;;;;;;10.17;54.37;100520.13;5020730;27;97466;-70
2021/10/05 09:12:55;;;;;;;1999.90;999.90;;;;;;;10.16;54.46;100513.91;5020122;27;97438;-68
2021/10/05 09:15:24;;;;;;;1999.90;999.90;;;;;;;10.16;54.47;100521.00;5022225;27;100574;-69
2021/10/05 09:17:54;;;;;;;1999.90;999.90;;;;;;;10.15;54.69;100514.81;5022834;27;100734;-67
2021/10/05 09:20:25;;;;;;;1999.90;999.90;;;;;;;10.15;54.85;100524.53;5021761;27;97143;-67
2021/10/05 09:22:57;;;;;;;1999.90;999.90;;;;;;;10.13;54.70;100527.16;5023551;27;97623;-69
2021/10/05 09:25:31;;;;;;;1999.90;999.90;;;;;;;10.13;54.82;100502.34;5005094;27;97727;-72
2021/10/05 09:28:01;;;;;;;1999.90;999.90;;;;;;;10.12;55.01;100504.09;5022263;27;97959;-70
2021/10/05 09:30:28;;;;;;;1999.90;999.90;;;;;;;10.13;55.15;100495.25;5021094;27;97206;-68
2021/10/05 09:33:02;;;;;;;1999.90;999.90;;;;;;;10.14;54.97;100490.81;5008338;27;97785;-70
2021/10/05 09:35:42;;;;;;;1999.90;999.90;;;;;;;10.16;54.81;100489.09;5023629;27;97678;-69
2021/10/05 09:38:12;;;;;;;1999.90;999.90;;;;;;;10.13;54.72;100474.00;5003337;28;98076;-72
2021/10/05 09:40:40;;;;;;;1999.90;999.90;;;;;;;10.13;54.92;100478.41;5018948;27;97125;-69
2021/10/05 09:43:21;;;;;;;1999.90;999.90;;;;;;;10.12;55.04;100476.59;5023103;27;96966;-70
2021/10/05 09:45:49;;;;;;;1999.90;999.90;;;;;;;10.12;55.11;100468.63;5012909;27;98649;-70
2021/10/05 09:48:17;;;;;;;1999.90;999.90;;;;;;;10.14;55.04;100473.13;5019939;27;97640;-70
2021/10/05 09:50:47;;;;;;;1999.90;999.90;;;;;;;10.11;55.01;100472.16;5001214;28;99499;-71
2021/10/05 09:53:17;;;;;;;1999.90;999.90;;;;;;;10.11;55.12;100485.47;5021863;27;97381;-70
2021/10/05 09:55:47;;;;;;;1999.90;999.90;;;;;;;10.09;55.01;100479.22;5003265;27;100780;-72
2021/10/05 09:58:16;;;;;;;1999.90;999.90;;;;;;;10.10;55.09;100470.38;5021022;28;100107;-71
2021/10/05 10:00:45;;;;;;;1999.90;999.90;;;;;;;10.08;55.09;100480.97;5005988;27;97228;-71
2021/10/05 10:03:16;;;;;;;1999.90;999.90;;;;;;;10.10;55.23;100467.72;5024656;27;97691;-71
2021/10/05 10:05:47;;;;;;;1999.90;999.90;;;;;;;10.11;55.02;100454.47;5024812;27;97648;-73
2021/10/05 10:08:16;;;;;;;1999.90;999.90;;;;;;;10.11;55.19;100454.47;5009034;28;100100;-72
2021/10/05 10:10:44;;;;;;;1999.90;999.90;;;;;;;10.11;55.17;100464.19;5023701;27;99170;-71
2021/10/05 10:13:13;;;;;;;1999.90;999.90;;;;;;;10.12;55.01;100457.97;5022775;28;97302;-72
2021/10/05 10:15:43;;;;;;;1999.90;999.90;;;;;;;10.10;55.12;100473.03;5024855;27;99150;-72
2021/10/05 10:18:13;;;;;;;1999.90;999.90;;;;;;;10.09;55.19;100466.81;5022928;27;97728;-72
2021/10/05 10:20:42;;;;;;;1999.90;999.90;;;;;;;10.09;54.92;100466.81;5020376;27;97202;-70
2021/10/05 10:23:19;;;;;;;1999.90;999.90;;;;;;;10.07;55.16;100473.88;5016863;27;97210;-71
2021/10/05 10:25:54;;;;;;;1999.90;999.90;;;;;;;10.09;55.31;100471.25;5020760;27;99514;-71
2021/10/05 10:28:27;;;;;;;1999.90;999.90;;;;;;;10.10;55.04;100467.72;5019826;27;100015;-71
2021/10/05 10:30:56;;;;;;;1999.90;999.90;;;;;;;10.06;55.33;100460.56;4999964;28;97019;-71
2021/10/05 10:33:27;;;;;;;1999.90;999.90;;;;;;;10.04;55.36;100465.84;5008939;28;97161;-71
2021/10/05 10:35:57;;;;;;;1999.90;999.90;;;;;;;9.99;55.47;100466.63;5011027;27;101492;-70
2021/10/05 10:38:28;;;;;;;1999.90;999.90;;;;;;;9.95;55.39;100456.81;4997319;28;99899;-72
2021/10/05 10:40:57;;;;;;;1999.90;999.90;;;;;;;9.94;55.65;100465.63;4998363;28;97338;-70
2021/10/05 10:43:27;;;;;;;1999.90;999.90;;;;;;;9.95;55.74;100463.03;5016087;27;97268;-70
2021/10/05 10:45:57;;;;;;;1999.90;999.90;;;;;;;9.90;55.53;100459.38;5015794;27;99550;-70
2021/10/05 10:48:27;;;;;;;1999.90;999.90;;;;;;;9.89;55.69;100452.28;5014574;27;98007;-70
2021/10/05 10:50:56;;;;;;;1999.90;999.90;;;;;;;9.88;56.01;100450.47;5011258;27;97347;-70
2021/10/05 10:53:37;;;;;;;1999.90;999.90;;;;;;;9.93;56.07;100439.94;5015488;27;97405;-71
2021/10/05 10:56:06;;;;;;;1999.90;999.90;;;;;;;9.90;56.03;100443.41;4987093;27;99513;-71